Flight Track Log - Related Links

Times and Time Zones

All times are in EDT time to prevent confusion due to time zone crossing. See the AAL963 flight status page for this flight to view local times or setup timezone preferences in your user account.

Time Position Orientation Groundspeed Altitude Reporting Facility
EDT Latitude Longitude Course Direction KTS MPH feet Rate Location/Type
Tue 09:05:18 PM 32.8540 -97.0550 191° South 179 206 2,200  Level FlightAware ADS-B
Tue 09:05:41 PM 32.8360 -97.0590 191° South 206 237 2,300 828 Climbing FlightAware ADS-B
Tue 09:06:16 PM 32.8030 -97.0670 192° South 232 267 3,000 1,688 Climbing FlightAware ADS-B
Tue 09:06:45 PM 32.7660 -97.0750 190° South 241 277 4,100 2,143 Climbing FlightAware ADS-B
Tue 09:06:58 PM 32.7520 -97.0780 190° South 242 278 4,500 2,000 Climbing FlightAware ADS-B
Tue 09:07:27 PM 32.7190 -97.0800 183° South 250 288 5,500 2,105 Climbing FlightAware ADS-B
Tue 09:07:55 PM 32.6860 -97.0750 173° South 257 296 6,500 1,929 Climbing FlightAware ADS-B
Tue 09:08:23 PM 32.6520 -97.0700 173° South 268 308 7,300 1,667 Climbing FlightAware ADS-B
Tue 09:08:49 PM 32.6190 -97.0650 173° South 272 313 8,000 764 Climbing FlightAware ADS-B
Tue 09:09:18 PM 32.5850 -97.0540 165° South 279 321 8,000 107 Level FlightAware ADS-B
Tue 09:09:45 PM 32.5550 -97.0300 146° Southeast 284 327 8,100 837 Climbing FlightAware ADS-B
Tue 09:10:01 PM 32.5370 -97.0160 147° Southeast 284 327 8,600 1,385 Climbing FlightAware ADS-B
Tue 09:10:24 PM 32.5270 -97.0070 143° Southeast 283 326 9,000 1,333 Climbing FlightAware ADS-B
Tue 09:11:13 PM 32.4550 -96.9500 146° Southeast 323 372 10,200 1,200 Climbing FlightAware ADS-B
Tue 09:11:54 PM 32.4050 -96.9110 147° Southeast 351 404 10,800 1,037 Climbing FlightAware ADS-B
Tue 09:12:34 PM 32.3460 -96.8640 146° Southeast 375 432 11,600 1,671 Climbing FlightAware ADS-B
Tue 09:13:13 PM 32.2880 -96.8210 148° Southeast 378 435 13,000 1,765 Climbing FlightAware ADS-B
Tue 09:13:59 PM 32.2110 -96.7870 160° South 393 452 14,100 1,605 Climbing FlightAware ADS-B
Tue 09:14:39 PM 32.1410 -96.7610 163° South 400 460 15,300 1,800 Climbing FlightAware ADS-B
Tue 09:14:49 PM 32.1216 -96.7534 162° South 401 461 15,600 1,714 Climbing FlightAware ADS-B
Tue 09:15:35 PM 32.0400 -96.7230 162° South 410 472 16,900 1,684 Climbing FlightAware ADS-B
Tue 09:15:46 PM 32.0194 -96.7147 161° South 409 471 17,200 1,535 Climbing FlightAware ADS-B
Tue 09:16:18 PM 31.9611 -96.6924 162° South 417 480 18,000 1,524 Climbing FlightAware ADS-B
Tue 09:16:49 PM 31.9037 -96.6706 162° South 420 483 18,800 1,463 Climbing FlightAware ADS-B
Tue 09:17:40 PM 31.8089 -96.6328 161° South 436 502 20,000 1,517 Climbing FlightAware ADS-B
Tue 09:18:16 PM 31.7397 -96.6039 160° South 439 505 21,000 1,612 Climbing FlightAware ADS-B
Tue 09:18:47 PM 31.6796 -96.5792 161° South 444 511 21,800 1,619 Climbing FlightAware ADS-B
Tue 09:19:19 PM 31.6161 -96.5535 161° South 447 514 22,700 1,388 Climbing FlightAware ADS-B
Tue 09:20:48 PM 31.4397 -96.4840 162° South 460 529 24,600 1,272 Climbing FlightAware ADS-B
Tue 09:21:50 PM 31.3125 -96.4370 162° South 470 541 25,900 1,304 Climbing FlightAware ADS-B
Tue 09:22:43 PM 31.2029 -96.3946 158° South 470 541 27,100 1,345 Climbing FlightAware ADS-B
Tue 09:22:48 PM 31.1926 -96.3888 154° Southeast 469 540 27,200 1,091 Climbing FlightAware ADS-B
Tue 09:23:05 PM 31.1625 -96.3655 143° Southeast 466 536 27,500 947 Climbing FlightAware ADS-B
Tue 09:23:26 PM 31.1314 -96.3275 130° Southeast 465 535 27,800 941 Climbing FlightAware ADS-B
Tue 09:23:56 PM 31.0931 -96.2657 126° Southeast 469 540 28,300 900 Climbing FlightAware ADS-B
Tue 09:24:26 PM 31.0550 -96.2033 125° Southeast 474 545 28,700 787 Climbing FlightAware ADS-B
Tue 09:24:57 PM 31.0157 -96.1390 125° Southeast 480 552 29,100 677 Climbing FlightAware ADS-B
Tue 09:25:28 PM 30.9761 -96.0746 126° Southeast 487 560 29,400 689 Climbing FlightAware ADS-B
Tue 09:25:58 PM 30.9354 -96.0088 126° Southeast 491 565 29,800 689 Climbing FlightAware ADS-B
Tue 09:26:29 PM 30.8945 -95.9426 126° Southeast 500 575 30,100 1,013 Climbing FlightAware ADS-B
Tue 09:28:32 PM 30.7302 -95.6784 126° Southeast 493 567 32,400 946 Climbing FlightAware ADS-B
Tue 09:29:33 PM 30.6481 -95.5468 126° Southeast 496 571 33,000 375 Climbing FlightAware ADS-B
Tue 09:30:08 PM 30.5999 -95.4696 126° Southeast 505 581 33,000  Level FlightAware ADS-B
Tue 09:30:39 PM 30.5579 -95.4026 126° Southeast 509 586 33,000  Level FlightAware ADS-B
Tue 09:31:09 PM 30.5162 -95.3363 126° Southeast 509 586 33,000  Level FlightAware ADS-B
Tue 09:31:39 PM 30.4741 -95.2693 126° Southeast 509 586 33,000  Level FlightAware ADS-B
Tue 09:32:10 PM 30.4321 -95.2028 126° Southeast 510 587 33,000  Level FlightAware ADS-B
Tue 09:34:14 PM 30.2595 -94.9299 126° Southeast 506 582 33,000  Level FlightAware ADS-B
Tue 09:35:15 PM 30.1758 -94.7983 126° Southeast 507 583 33,000  Level FlightAware ADS-B
Tue 09:35:45 PM 30.1339 -94.7327 126° Southeast 508 585 33,000  Level FlightAware ADS-B
Tue 09:36:15 PM 30.0916 -94.6664 126° Southeast 510 587 33,000  Level FlightAware ADS-B
Tue 09:37:15 PM 30.0071 -94.5344 126° Southeast 511 588 33,000  Level FlightAware ADS-B
Tue 09:40:41 PM 29.7167 -94.0845 127° Southeast 515 593 33,000  Level FlightAware ADS-B
Tue 09:41:07 PM 29.6735 -94.0310 135° Southeast 515 593 33,000  Level FlightAware ADS-B
Tue 09:41:38 PM 29.6172 -93.9779 141° Southeast 516 594 33,000  Level FlightAware ADS-B
Tue 09:42:08 PM 29.5600 -93.9285 143° Southeast 517 595 33,000  Level FlightAware ADS-B
Tue 09:42:38 PM 29.5017 -93.8791 144° Southeast 517 595 33,000  Level FlightAware ADS-B
Tue 09:43:09 PM 29.4436 -93.8298 144° Southeast 517 595 33,000  Level FlightAware ADS-B
Tue 09:43:42 PM 29.3784 -93.7744 143° Southeast 518 596 33,000  Level FlightAware ADS-B
Tue 09:44:16 PM 29.3126 -93.7187 144° Southeast 520 598 33,000  Level FlightAware ADS-B
Tue 09:44:51 PM 29.2464 -93.6625 143° Southeast 521 600 33,000  Level FlightAware ADS-B
Tue 09:45:21 PM 29.1865 -93.6117 143° Southeast 521 600 33,000  Level FlightAware ADS-B
Tue 09:45:52 PM 29.1268 -93.5611 143° Southeast 522 601 33,000  Level FlightAware ADS-B
Tue 09:46:23 PM 29.0671 -93.5107 144° Southeast 520 598 33,000  Level FlightAware ADS-B
Tue 09:46:53 PM 29.0088 -93.4615 144° Southeast 520 598 33,000  Level FlightAware ADS-B
Tue 09:47:24 PM 28.9489 -93.4110 144° Southeast 520 598 33,000  Level FlightAware ADS-B
Tue 09:47:55 PM 28.8888 -93.3604 144° Southeast 520 598 33,000 -57 Level FlightAware ADS-B
Tue 09:49:09 PM 28.7672 -93.2586 144° Southeast 519 597 32,900 -44 Descending Houston Center
Tue 09:50:10 PM 28.6517 -93.1600 143° Southeast 520 598 32,900  Level Houston Center
Tue 09:51:12 PM 28.5347 -93.0625 144° Southeast 521 600 32,900 49 Level Houston Center
Tue 09:52:13 PM 28.3939 -92.9442 144° Southeast 524 603 33,000  Climbing Houston Center
Tue 09:53:14 PM 28.2756 -92.8483 144° Southeast 524 603 32,900  Descending Houston Center
Tue 09:54:15 PM 28.1592 -92.7497 143° Southeast 523 602 33,000 14 Climbing Houston Center
Tue 10:00:17 PM 27.4420 -92.1650 143° Southeast 519 597 33,000  Level FlightAware ADS-B
Tue 10:01:24 PM 27.3161 -92.0636 143° Southeast 517 595 33,000 -47 Level Houston Center
Tue 10:02:25 PM 27.2008 -91.9689 144° Southeast 517 595 32,900  Descending Houston Center
Tue 10:03:26 PM 27.0836 -91.8769 145° Southeast 516 594 33,000 146 Climbing Houston Center
Tue 10:04:28 PM 26.9678 -91.7831 144° Southeast 513 590 33,200 537 Climbing Houston Center
Tue 10:05:29 PM 26.8619 -91.6972 144° Southeast 511 588 34,100 885 Climbing Houston Center
Tue 10:06:30 PM 26.7394 -91.5997 145° Southeast 506 582 35,000 393 Climbing Houston Center
Tue 10:07:31 PM 26.6192 -91.5044 145° Southeast 504 580 34,900  Descending Houston Center
Tue 10:09:00 PM 26.4591 -91.3728 144° Southeast  Level FlightAware Approximate
Tue 10:16:00 PM 25.6939 -90.7687 145° Southeast  Level FlightAware Approximate
Tue 10:17:00 PM 25.5842 -90.6833 145° Southeast  Level FlightAware Approximate
Tue 10:18:00 PM 25.4745 -90.5982 145° Southeast  Level FlightAware Approximate
Tue 10:19:00 PM 25.3647 -90.5131 145° Southeast  Level FlightAware Approximate
Tue 10:20:00 PM 25.2548 -90.4282 145° Southeast  Level FlightAware Approximate
Tue 10:21:00 PM 25.1449 -90.3435 145° Southeast  Level FlightAware Approximate
Tue 10:22:00 PM 25.0350 -90.2589 145° Southeast  Level FlightAware Approximate
Tue 10:22:57 PM 24.9160 -90.1690 145° Southeast 516 594 35,000  Level FlightAware ADS-B
Tue 10:23:00 PM 24.9250 -90.1745 145° Southeast  Level FlightAware Approximate
Tue 10:23:32 PM 24.8270 -90.1010 145° Southeast 517 595 35,000  Level FlightAware ADS-B
Tue 10:24:16 PM 24.7560 -90.0470 145° Southeast 519 597 35,000  Level FlightAware ADS-B
Tue 10:24:59 PM 24.6780 -89.9870 145° Southeast 519 597 35,000  Level FlightAware ADS-B
Tue 10:25:41 PM 24.6220 -89.9430 144° Southeast 520 598 35,000  Level FlightAware ADS-B
Tue 10:26:41 PM 24.5210 -89.8660 145° Southeast 520 598 35,000  Level FlightAware ADS-B
Tue 10:27:17 PM 24.4610 -89.8200 145° Southeast 520 598 35,000  Level FlightAware ADS-B
Tue 10:27:29 PM 24.4070 -89.6840 114° Southeast 35,000  Level FlightAware ADS-B
Tue 10:28:13 PM 24.3540 -89.5760 118° Southeast 522 601 35,000  Level FlightAware ADS-B
Tue 10:28:59 PM 24.3190 -89.5050 118° Southeast 523 602 35,000  Level FlightAware ADS-B
Tue 10:29:33 PM 24.2680 -89.4060 119° Southeast 523 602 35,000  Level FlightAware ADS-B
Tue 10:30:21 PM 24.2220 -89.3100 118° Southeast 523 602 35,000  Level FlightAware ADS-B
Tue 10:30:58 PM 24.1660 -89.2030 120° Southeast 523 602 35,000  Level FlightAware ADS-B
Tue 10:31:43 PM 24.1060 -89.0840 119° Southeast 522 601 35,000  Level FlightAware ADS-B
Tue 10:32:50 PM 24.0240 -88.9220 119° Southeast 521 600 35,000  Level FlightAware ADS-B
Tue 10:33:38 PM 23.9670 -88.8090 119° Southeast 521 600 35,000  Level FlightAware ADS-B
Tue 10:34:19 PM 23.9190 -88.7150 119° Southeast 521 600 35,000  Level FlightAware ADS-B
Tue 10:35:01 PM 23.8660 -88.6100 119° Southeast 521 600 35,000  Level FlightAware ADS-B
Tue 10:35:48 PM 23.8180 -88.5140 119° Southeast 521 600 35,000  Level FlightAware ADS-B
Tue 10:36:26 PM 23.7710 -88.4240 120° Southeast 521 600 35,000  Level FlightAware ADS-B
Tue 10:37:05 PM 23.7210 -88.3260 119° Southeast 522 601 35,000  Level FlightAware ADS-B
Tue 10:37:49 PM 23.6680 -88.2230 119° Southeast 522 601 35,000  Level FlightAware ADS-B
Tue 10:38:46 PM 23.6030 -88.0950 119° Southeast 522 601 35,000  Level FlightAware ADS-B
Tue 10:39:40 PM 23.5370 -87.9680 120° Southeast 521 600 35,000  Level FlightAware ADS-B
Tue 10:40:23 PM 23.4860 -87.8690 119° Southeast 520 598 35,000  Level FlightAware ADS-B
Tue 10:41:08 PM 23.4350 -87.7710 120° Southeast 519 597 35,000  Level FlightAware ADS-B
Tue 10:42:04 PM 23.3650 -87.6310 119° Southeast 518 596 35,000  Level FlightAware ADS-B
Tue 10:42:41 PM 23.3260 -87.5540 119° Southeast 518 596 35,000  Level FlightAware ADS-B
Tue 10:43:20 PM 23.2870 -87.4770 119° Southeast 519 597 35,000  Level FlightAware ADS-B
Tue 10:44:23 PM 23.1780 -87.2630 119° Southeast 521 600 35,000  Level FlightAware ADS-B
Tue 10:45:00 PM 23.1350 -87.1780 119° Southeast 521 600 35,000  Level FlightAware ADS-B
Tue 10:45:46 PM 23.0810 -87.0730 119° Southeast 521 600 35,000  Level FlightAware ADS-B
Tue 10:46:23 PM 23.0390 -86.9890 119° Southeast 522 601 35,000  Level FlightAware ADS-B
Tue 10:47:04 PM 22.9910 -86.8960 119° Southeast 521 600 35,000  Level FlightAware ADS-B
Tue 10:47:54 PM 22.9310 -86.7800 119° Southeast 521 600 35,000  Level FlightAware ADS-B
Tue 10:48:33 PM 22.8900 -86.7000 119° Southeast 521 600 35,000  Level FlightAware ADS-B
Tue 10:49:14 PM 22.8420 -86.6060 119° Southeast 520 598 35,000  Level FlightAware ADS-B
Tue 10:49:57 PM 22.7910 -86.5070 119° Southeast 520 598 35,000  Level FlightAware ADS-B
Tue 10:50:37 PM 22.7380 -86.4160 122° Southeast 522 601 35,000  Level FlightAware ADS-B
Tue 10:51:18 PM 22.6810 -86.3270 125° Southeast 523 602 35,000  Level FlightAware ADS-B
Tue 10:52:04 PM 22.6190 -86.2290 124° Southeast 523 602 35,000  Level FlightAware ADS-B
Tue 10:52:40 PM 22.5670 -86.1490 125° Southeast 523 602 35,000  Level FlightAware ADS-B
Tue 10:53:27 PM 22.5020 -86.0490 125° Southeast 524 603 35,000  Level FlightAware ADS-B
Tue 10:54:08 PM 22.4520 -85.9650 123° Southeast 524 603 35,000  Level FlightAware ADS-B
Tue 10:55:08 PM 22.3760 -85.8190 119° Southeast 524 603 35,000  Level FlightAware ADS-B
Tue 10:55:41 PM 22.3370 -85.7440 119° Southeast 523 602 35,000  Level FlightAware ADS-B
Tue 10:56:26 PM 22.2860 -85.6470 120° Southeast 522 601 35,000  Level FlightAware ADS-B
Tue 10:57:07 PM 22.2360 -85.5500 119° Southeast 522 601 35,000  Level FlightAware ADS-B
Tue 10:57:54 PM 22.1830 -85.4510 120° Southeast 521 600 35,000  Level FlightAware ADS-B
Tue 10:58:48 PM 22.1150 -85.3220 120° Southeast 521 600 35,000  Level FlightAware ADS-B
Tue 10:59:32 PM 22.0650 -85.2270 120° Southeast 520 598 35,000  Level FlightAware ADS-B
Tue 11:00:07 PM 22.0210 -85.1430 119° Southeast 521 600 35,000  Level FlightAware ADS-B
Tue 11:00:54 PM 21.9650 -85.0380 120° Southeast 521 600 35,000  Level FlightAware ADS-B
Tue 11:01:39 PM 21.9160 -84.9450 120° Southeast 521 600 35,000  Level FlightAware ADS-B
Tue 11:02:19 PM 21.8680 -84.8540 120° Southeast 520 598 35,000  Level FlightAware ADS-B
Tue 11:03:01 PM 21.8170 -84.7590 120° Southeast 521 600 35,000  Level FlightAware ADS-B
Tue 11:03:41 PM 21.7650 -84.6600 119° Southeast 521 600 35,000  Level FlightAware ADS-B
Tue 11:04:30 PM 21.7210 -84.5740 119° Southeast 521 600 35,000  Level FlightAware ADS-B
Tue 11:05:06 PM 21.6850 -84.5050 119° Southeast 521 600 35,000  Level FlightAware ADS-B
Tue 11:05:44 PM 21.6470 -84.4320 119° Southeast 521 600 35,000  Level FlightAware ADS-B
Tue 11:06:33 PM 21.5980 -84.3370 119° Southeast 521 600 35,000  Level FlightAware ADS-B
Tue 11:07:09 PM 21.5630 -84.2680 119° Southeast 521 600 35,000  Level FlightAware ADS-B
Tue 11:07:56 PM 21.4700 -84.1060 122° Southeast 513 590 35,000  Level FlightAware ADS-B
Tue 11:08:42 PM 21.4200 -84.0110 119° Southeast 513 590 35,000  Level FlightAware ADS-B
Tue 11:09:15 PM 21.3680 -83.9170 121° Southeast 512 589 35,000  Level FlightAware ADS-B
Tue 11:10:18 PM 21.3030 -83.7930 119° Southeast 511 588 35,000  Level FlightAware ADS-B
Tue 11:10:58 PM 21.2640 -83.7170 119° Southeast 511 588 35,000  Level FlightAware ADS-B
Tue 11:11:29 PM 21.2340 -83.6590 119° Southeast 511 588 35,000  Level FlightAware ADS-B
Tue 11:12:17 PM 21.1870 -83.5690 119° Southeast 511 588 35,000  Level FlightAware ADS-B
Tue 11:12:53 PM 21.1520 -83.5010 119° Southeast 511 588 35,000  Level FlightAware ADS-B
Tue 11:13:41 PM 21.1050 -83.4100 119° Southeast 511 588 35,000  Level FlightAware ADS-B
Tue 11:14:17 PM 21.0700 -83.3420 119° Southeast 511 588 35,000  Level FlightAware ADS-B
Tue 11:15:05 PM 21.0230 -83.2520 119° Southeast 511 588 35,000  Level FlightAware ADS-B
Tue 11:16:02 PM 20.9680 -83.1450 119° Southeast 511 588 35,000  Level FlightAware ADS-B
Tue 11:16:39 PM 20.9320 -83.0750 119° Southeast 511 588 35,000  Level FlightAware ADS-B
Tue 11:17:19 PM 20.8930 -83.0000 119° Southeast 511 588 35,000  Level FlightAware ADS-B
Tue 11:18:08 PM 20.8450 -82.9080 119° Southeast 511 588 35,000  Level FlightAware ADS-B
Tue 11:18:43 PM 20.8110 -82.8420 119° Southeast 511 588 35,000  Level FlightAware ADS-B
Tue 11:19:32 PM 20.7630 -82.7500 119° Southeast 511 588 35,000 Level FlightAware ADS-B
Tue 11:22:00 PM 20.5118 -82.5205 139° Southeast  Level Estimated
Tue 11:23:00 PM 20.4099 -82.4277 140° Southeast  Level Estimated
Tue 11:24:00 PM 20.3079 -82.3349 140° Southeast  Level Estimated
Tue 11:25:00 PM 20.2059 -82.2423 140° Southeast  Level Estimated
Tue 11:26:00 PM 20.1038 -82.1499 140° Southeast  Level Estimated
Tue 11:27:00 PM 20.0017 -82.0575 140° Southeast  Level Estimated
Tue 11:28:00 PM 19.8995 -81.9653 140° Southeast  Level Estimated
Tue 11:29:00 PM 19.7994 -81.8751 140° Southeast  Level Estimated
Tue 11:30:00 PM 19.6992 -81.7850 140° Southeast  Level Estimated
Tue 11:31:00 PM 19.5990 -81.6949 140° Southeast  Level Estimated
Tue 11:32:00 PM 19.4988 -81.6050 140° Southeast  Level Estimated
Tue 11:33:00 PM 19.3985 -81.5153 140° Southeast  Level Estimated
Tue 11:34:00 PM 19.2981 -81.4256 140° Southeast  Level Estimated
Tue 11:35:00 PM 19.1977 -81.3360 140° Southeast  Level Estimated
Tue 11:36:00 PM 19.0973 -81.2466 140° Southeast  Level Estimated
Tue 11:37:00 PM 18.9968 -81.1572 140° Southeast  Level Estimated
Tue 11:38:00 PM 18.8963 -81.0680 140° Southeast  Level Estimated
Tue 11:39:00 PM 18.7957 -80.9789 140° Southeast  Level Estimated
Tue 11:40:00 PM 18.6951 -80.8899 140° Southeast  Level Estimated
Tue 11:41:00 PM 18.5945 -80.8009 140° Southeast  Level Estimated
Tue 11:42:00 PM 18.4938 -80.7121 140° Southeast  Level Estimated
Tue 11:43:00 PM 18.3930 -80.6234 140° Southeast  Level Estimated
Tue 11:44:00 PM 18.2923 -80.5348 140° Southeast  Level Estimated
Tue 11:45:00 PM 18.1915 -80.4463 140° Southeast  Level Estimated
Tue 11:46:00 PM 18.0906 -80.3579 140° Southeast  Level Estimated
Tue 11:47:00 PM 17.9897 -80.2696 140° Southeast  Level Estimated
Tue 11:48:00 PM 17.8888 -80.1814 140° Southeast  Level Estimated
Tue 11:49:00 PM 17.7878 -80.0933 140° Southeast  Level Estimated
Tue 11:50:00 PM 17.6868 -80.0053 140° Southeast  Level Estimated
Tue 11:51:00 PM 17.5858 -79.9174 140° Southeast  Level Estimated
Tue 11:52:00 PM 17.4847 -79.8296 140° Southeast  Level Estimated
Tue 11:53:00 PM 17.3835 -79.7419 140° Southeast  Level Estimated
Tue 11:54:00 PM 17.2824 -79.6543 140° Southeast  Level Estimated
Tue 11:55:00 PM 17.1812 -79.5668 140° Southeast  Level Estimated
Tue 11:56:00 PM 17.0799 -79.4794 140° Southeast  Level Estimated
Tue 11:57:00 PM 16.9786 -79.3921 140° Southeast  Level Estimated
Tue 11:58:00 PM 16.8773 -79.3049 141° Southeast  Level Estimated
Tue 11:59:00 PM 16.7760 -79.2177 141° Southeast  Level Estimated
Wed 12:00:00 AM 16.6746 -79.1307 141° Southeast  Level Estimated
Wed 12:01:00 AM 16.5731 -79.0437 141° Southeast  Level Estimated
Wed 12:02:00 AM 16.4717 -78.9569 141° Southeast  Level Estimated
Wed 12:03:00 AM 16.3702 -78.8701 141° Southeast  Level Estimated
Wed 12:04:00 AM 16.2686 -78.7835 141° Southeast  Level Estimated
Wed 12:05:00 AM 16.1671 -78.6969 141° Southeast  Level Estimated
Wed 12:06:00 AM 16.0655 -78.6104 141° Southeast  Level Estimated
Wed 12:07:00 AM 15.9638 -78.5240 141° Southeast  Level Estimated
Wed 12:08:00 AM 15.8622 -78.4377 141° Southeast  Level Estimated
Wed 12:09:00 AM 15.7604 -78.3514 141° Southeast  Level Estimated
Wed 12:10:00 AM 15.6587 -78.2653 141° Southeast  Level Estimated
Wed 12:11:00 AM 15.5569 -78.1793 141° Southeast  Level Estimated
Wed 12:12:00 AM 15.4551 -78.0933 141° Southeast  Level Estimated
Wed 12:13:00 AM 15.3533 -78.0074 141° Southeast  Level Estimated
Wed 12:14:00 AM 15.2514 -77.9216 141° Southeast  Level Estimated
Wed 12:15:00 AM 15.1495 -77.8359 141° Southeast  Level Estimated
Wed 12:16:00 AM 15.0475 -77.7502 141° Southeast  Level Estimated
Wed 12:17:00 AM 14.9456 -77.6647 141° Southeast  Level Estimated
Wed 12:18:00 AM 14.8436 -77.5792 141° Southeast  Level Estimated
Wed 12:19:00 AM 14.7415 -77.4938 141° Southeast  Level Estimated
Wed 12:20:00 AM 14.6395 -77.4085 141° Southeast  Level Estimated
Wed 12:21:00 AM 14.5374 -77.3232 141° Southeast  Level Estimated
Wed 12:22:00 AM 14.4352 -77.2381 141° Southeast  Level Estimated
Wed 12:23:00 AM 14.3331 -77.1530 141° Southeast  Level Estimated
Wed 12:24:00 AM 14.2309 -77.0680 141° Southeast  Level Estimated
Wed 12:25:00 AM 14.1287 -76.9831 141° Southeast  Level Estimated
Wed 12:26:00 AM 14.0264 -76.8982 141° Southeast  Level Estimated
Wed 12:27:00 AM 13.9241 -76.8135 141° Southeast  Level Estimated
Wed 12:28:00 AM 13.8218 -76.7288 141° Southeast  Level Estimated
Wed 12:29:00 AM 13.7195 -76.6441 141° Southeast  Level Estimated
Wed 12:30:00 AM 13.6171 -76.5596 141° Southeast  Level Estimated
Wed 12:31:00 AM 13.5147 -76.4751 141° Southeast  Level Estimated
Wed 12:32:00 AM 13.4121 -76.3905 141° Southeast  Level Estimated
Wed 12:33:00 AM 13.3095 -76.3061 141° Southeast  Level Estimated
Wed 12:34:00 AM 13.2070 -76.2218 141° Southeast  Level Estimated
Wed 12:35:00 AM 13.1045 -76.1376 141° Southeast  Level Estimated
Wed 12:36:00 AM 13.0020 -76.0535 141° Southeast  Level Estimated
Wed 12:37:00 AM 12.8994 -75.9695 141° Southeast  Level Estimated
Wed 12:38:00 AM 12.7968 -75.8855 141° Southeast  Level Estimated
Wed 12:39:00 AM 12.6942 -75.8016 141° Southeast  Level Estimated
Wed 12:40:00 AM 12.5916 -75.7177 141° Southeast  Level Estimated
Wed 12:41:00 AM 12.4889 -75.6339 141° Southeast  Level Estimated
Wed 12:42:00 AM 12.3862 -75.5502 141° Southeast  Level Estimated
Wed 12:43:00 AM 12.2835 -75.4666 141° Southeast  Level Estimated
Wed 12:44:00 AM 12.1807 -75.3830 142° Southeast  Level Estimated
Wed 12:45:00 AM 12.0780 -75.2995 142° Southeast  Level Estimated
Wed 12:46:00 AM 11.9752 -75.2160 142° Southeast  Level Estimated
Wed 12:47:00 AM 11.8724 -75.1326 142° Southeast  Level Estimated
Wed 12:48:00 AM 11.7695 -75.0493 142° Southeast  Level Estimated
Wed 12:49:00 AM 11.6667 -74.9660 142° Southeast  Level Estimated
Wed 12:50:00 AM 11.5638 -74.8829 142° Southeast  Level Estimated
Wed 12:51:00 AM 11.4609 -74.7997 142° Southeast  Level Estimated
Wed 12:52:00 AM 11.3579 -74.7166 142° Southeast  Level Estimated
Wed 12:53:00 AM 11.2550 -74.6336 142° Southeast  Level Estimated
Wed 12:54:00 AM 11.1520 -74.5507 142° Southeast  Level Estimated
Wed 12:55:00 AM 11.0490 -74.4678 142° Southeast  Level Estimated
Wed 12:56:00 AM 10.9459 -74.3849 142° Southeast  Level Estimated
Wed 12:57:00 AM 10.8431 -74.3023 142° Southeast  Level Estimated
Wed 12:58:00 AM 10.7402 -74.2197 142° Southeast  Level Estimated
Wed 12:59:00 AM 10.6373 -74.1372 142° Southeast  Level Estimated
Wed 01:00:00 AM 10.5343 -74.0547 142° Southeast  Level Estimated
Wed 01:01:00 AM 10.4314 -73.9723 142° Southeast  Level Estimated
Wed 01:02:00 AM 10.3284 -73.8899 142° Southeast  Level Estimated
Wed 01:03:00 AM 10.2254 -73.8076 142° Southeast  Level Estimated
Wed 01:04:00 AM 10.1224 -73.7253 142° Southeast  Level Estimated
Wed 01:05:00 AM 10.0193 -73.6431 142° Southeast  Level Estimated
Wed 01:06:00 AM 9.9163 -73.5610 142° Southeast  Level Estimated
Wed 01:07:00 AM 9.8132 -73.4789 142° Southeast  Level Estimated
Wed 01:08:00 AM 9.7101 -73.3968 142° Southeast  Level Estimated
Wed 01:09:00 AM 9.6070 -73.3148 142° Southeast  Level Estimated
Wed 01:10:00 AM 9.5038 -73.2329 142° Southeast  Level Estimated
Wed 01:11:00 AM 9.4007 -73.1510 142° Southeast  Level Estimated
Wed 01:12:00 AM 9.2975 -73.0691 142° Southeast  Level Estimated
Wed 01:13:00 AM 9.1943 -72.9873 142° Southeast  Level Estimated
Wed 01:14:00 AM 9.0911 -72.9056 142° Southeast  Level Estimated
Wed 01:15:00 AM 8.9878 -72.8239 142° Southeast  Level Estimated
Wed 01:16:00 AM 8.8846 -72.7422 142° Southeast  Level Estimated
Wed 01:17:00 AM 8.7813 -72.6606 142° Southeast  Level Estimated
Wed 01:18:00 AM 8.6780 -72.5790 142° Southeast  Level Estimated
Wed 01:19:00 AM 8.5747 -72.4975 142° Southeast  Level Estimated
Wed 01:20:00 AM 8.4714 -72.4160 142° Southeast  Level Estimated
Wed 01:21:00 AM 8.3681 -72.3346 142° Southeast  Level Estimated
Wed 01:22:00 AM 8.2647 -72.2532 142° Southeast  Level Estimated
Wed 01:23:00 AM 8.1613 -72.1719 142° Southeast  Level Estimated
Wed 01:24:00 AM 8.0580 -72.0906 142° Southeast  Level Estimated
Wed 01:25:00 AM 7.9545 -72.0093 142° Southeast  Level Estimated
Wed 01:26:00 AM 7.8511 -71.9281 142° Southeast  Level Estimated
Wed 01:27:00 AM 7.7477 -71.8469 142° Southeast  Level Estimated
Wed 01:28:00 AM 7.6442 -71.7657 142° Southeast  Level Estimated
Wed 01:29:00 AM 7.5408 -71.6846 142° Southeast  Level Estimated
Wed 01:30:00 AM 7.4373 -71.6036 142° Southeast  Level Estimated
Wed 01:31:00 AM 7.3338 -71.5226 142° Southeast  Level Estimated
Wed 01:32:00 AM 7.2303 -71.4416 142° Southeast  Level Estimated
Wed 01:33:00 AM 7.1268 -71.3606 142° Southeast  Level Estimated
Wed 01:34:00 AM 7.0232 -71.2797 142° Southeast  Level Estimated
Wed 01:35:00 AM 6.9197 -71.1988 142° Southeast  Level Estimated
Wed 01:36:00 AM 6.8161 -71.1180 142° Southeast  Level Estimated
Wed 01:37:00 AM 6.7125 -71.0372 142° Southeast  Level Estimated
Wed 01:38:00 AM 6.6090 -70.9564 142° Southeast  Level Estimated
Wed 01:39:00 AM 6.5054 -70.8756 142° Southeast  Level Estimated
Wed 01:40:00 AM 6.4017 -70.7949 142° Southeast  Level Estimated
Wed 01:41:00 AM 6.2981 -70.7142 142° Southeast  Level Estimated
Wed 01:42:00 AM 6.1945 -70.6336 142° Southeast  Level Estimated
Wed 01:43:00 AM 6.0908 -70.5530 142° Southeast  Level Estimated
Wed 01:44:00 AM 5.9871 -70.4724 142° Southeast  Level Estimated
Wed 01:45:00 AM 5.8835 -70.3919 142° Southeast  Level Estimated
Wed 01:46:00 AM 5.7798 -70.3113 142° Southeast  Level Estimated
Wed 01:47:00 AM 5.6761 -70.2309 142° Southeast  Level Estimated
Wed 01:48:00 AM 5.5724 -70.1504 142° Southeast  Level Estimated
Wed 01:49:00 AM 5.4686 -70.0700 142° Southeast  Level Estimated
Wed 01:50:00 AM 5.3649 -69.9896 142° Southeast  Level Estimated
Wed 01:51:00 AM 5.2612 -69.9092 142° Southeast  Level Estimated
Wed 01:52:00 AM 5.1574 -69.8288 142° Southeast  Level Estimated
Wed 01:53:00 AM 5.0536 -69.7485 142° Southeast  Level Estimated
Wed 01:54:00 AM 4.9499 -69.6682 142° Southeast  Level Estimated
Wed 01:55:00 AM 4.8461 -69.5879 142° Southeast  Level Estimated
Wed 01:56:00 AM 4.7423 -69.5077 142° Southeast  Level Estimated
Wed 01:57:00 AM 4.6385 -69.4275 142° Southeast  Level Estimated
Wed 01:58:00 AM 4.5347 -69.3473 142° Southeast  Level Estimated
Wed 01:59:00 AM 4.4309 -69.2671 142° Southeast  Level Estimated
Wed 02:00:00 AM 4.3271 -69.1869 142° Southeast  Level Estimated
Wed 02:01:00 AM 4.2232 -69.1068 142° Southeast  Level Estimated
Wed 02:02:00 AM 4.1194 -69.0267 142° Southeast  Level Estimated
Wed 02:03:00 AM 4.0155 -68.9466 142° Southeast  Level Estimated
Wed 02:04:00 AM 3.9116 -68.8665 142° Southeast  Level Estimated
Wed 02:05:00 AM 3.8078 -68.7865 142° Southeast  Level Estimated
Wed 02:06:00 AM 3.7039 -68.7064 142° Southeast  Level Estimated
Wed 02:07:00 AM 3.6000 -68.6264 142° Southeast  Level Estimated
Wed 02:08:00 AM 3.4961 -68.5464 142° Southeast  Level Estimated
Wed 02:09:00 AM 3.3922 -68.4664 142° Southeast  Level Estimated
Wed 02:10:00 AM 3.2883 -68.3865 142° Southeast  Level Estimated
Wed 02:11:00 AM 3.1844 -68.3065 142° Southeast  Level Estimated
Wed 02:12:00 AM 3.0805 -68.2266 142° Southeast  Level Estimated
Wed 02:13:00 AM 2.9766 -68.1467 142° Southeast  Level Estimated
Wed 02:14:00 AM 2.8726 -68.0668 142° Southeast  Level Estimated
Wed 02:15:00 AM 2.7687 -67.9869 142° Southeast  Level Estimated
Wed 02:16:00 AM 2.6648 -67.9071 142° Southeast  Level Estimated
Wed 02:17:00 AM 2.5608 -67.8272 142° Southeast  Level Estimated
Wed 02:18:00 AM 2.4569 -67.7474 142° Southeast  Level Estimated
Wed 02:19:00 AM 2.3529 -67.6675 143° Southeast  Level Estimated
Wed 02:20:00 AM 2.2490 -67.5877 143° Southeast  Level Estimated
Wed 02:21:00 AM 2.1450 -67.5079 143° Southeast  Level Estimated
Wed 02:22:00 AM 2.0410 -67.4281 143° Southeast  Level Estimated
Wed 02:23:00 AM 1.9371 -67.3483 143° Southeast  Level Estimated
Wed 02:24:00 AM 1.8331 -67.2685 143° Southeast  Level Estimated
Wed 02:25:00 AM 1.7291 -67.1888 143° Southeast  Level Estimated
Wed 02:26:00 AM 1.6251 -67.1090 143° Southeast  Level Estimated
Wed 02:27:00 AM 1.5211 -67.0293 143° Southeast  Level Estimated
Wed 02:28:00 AM 1.4171 -66.9495 143° Southeast  Level Estimated
Wed 02:29:00 AM 1.3132 -66.8698 143° Southeast  Level Estimated
Wed 02:30:00 AM 1.2092 -66.7901 143° Southeast  Level Estimated
Wed 02:31:00 AM 1.1052 -66.7103 143° Southeast  Level Estimated
Wed 02:32:00 AM 1.0012 -66.6306 143° Southeast  Level Estimated
Wed 02:33:00 AM 0.8972 -66.5509 143° Southeast  Level Estimated
Wed 02:34:00 AM 0.7932 -66.4712 143° Southeast  Level Estimated
Wed 02:35:00 AM 0.6892 -66.3915 143° Southeast  Level Estimated
Wed 02:36:00 AM 0.5852 -66.3118 143° Southeast  Level Estimated
Wed 02:37:00 AM 0.4811 -66.2321 143° Southeast  Level Estimated
Wed 02:38:00 AM 0.3771 -66.1524 143° Southeast  Level Estimated
Wed 02:39:00 AM 0.2731 -66.0727 143° Southeast  Level Estimated
Wed 02:40:00 AM 0.1691 -65.9930 143° Southeast  Level Estimated
Wed 02:41:00 AM 0.0651 -65.9133 143° Southeast  Level Estimated
Wed 02:42:00 AM -0.0389 -65.8336 143° Southeast  Level Estimated
Wed 02:43:00 AM -0.1429 -65.7540 143° Southeast  Level Estimated
Wed 02:44:00 AM -0.2469 -65.6743 143° Southeast  Level Estimated
Wed 02:45:00 AM -0.3509 -65.5946 143° Southeast  Level Estimated
Wed 02:46:00 AM -0.4550 -65.5149 143° Southeast  Level Estimated
Wed 02:47:00 AM -0.5590 -65.4352 143° Southeast  Level Estimated
Wed 02:48:00 AM -0.6630 -65.3555 143° Southeast  Level Estimated
Wed 02:49:00 AM -0.7670 -65.2758 143° Southeast  Level Estimated
Wed 02:50:00 AM -0.8710 -65.1961 143° Southeast  Level Estimated
Wed 02:51:00 AM -0.9750 -65.1164 143° Southeast  Level Estimated
Wed 02:52:00 AM -1.0790 -65.0367 143° Southeast  Level Estimated
Wed 02:53:00 AM -1.1830 -64.9569 143° Southeast  Level Estimated
Wed 02:54:00 AM -1.2870 -64.8772 143° Southeast  Level Estimated
Wed 02:55:00 AM -1.3909 -64.7975 143° Southeast  Level Estimated
Wed 02:56:00 AM -1.4949 -64.7177 143° Southeast  Level Estimated
Wed 02:57:00 AM -1.5989 -64.6380 143° Southeast  Level Estimated
Wed 02:58:00 AM -1.7029 -64.5582 143° Southeast  Level Estimated
Wed 02:59:00 AM -1.8069 -64.4785 143° Southeast  Level Estimated
Wed 03:00:00 AM -1.9109 -64.3987 143° Southeast  Level Estimated
Wed 03:01:00 AM -2.0148 -64.3189 143° Southeast  Level Estimated
Wed 03:02:00 AM -2.1188 -64.2391 143° Southeast  Level Estimated
Wed 03:03:00 AM -2.2228 -64.1593 143° Southeast  Level Estimated
Wed 03:03:45 AM -1.3620 -61.4130 143° Southeast 490 564 37,000  Level FlightAware ADS-B
Wed 03:04:00 AM -2.3267 -64.0795 143° Southeast  Level Estimated
Wed 03:04:29 AM -1.4390 -61.3540 143° Southeast 490 564 37,000  Level FlightAware ADS-B
Wed 03:05:09 AM -1.5150 -61.2960 143° Southeast 489 563 37,000  Level FlightAware ADS-B
Wed 03:05:59 AM -1.6050 -61.2270 143° Southeast 489 563 37,000  Level FlightAware ADS-B
Wed 03:06:41 AM -1.6800 -61.1700 143° Southeast 490 564 37,000  Level FlightAware ADS-B
Wed 03:07:21 AM -1.7530 -61.1140 143° Southeast 490 564 37,000  Level FlightAware ADS-B
Wed 03:08:06 AM -1.8340 -61.0520 143° Southeast 491 565 37,000  Level FlightAware ADS-B
Wed 03:08:47 AM -1.9080 -60.9950 142° Southeast 491 565 37,000  Level FlightAware ADS-B
Wed 03:09:27 AM -1.9800 -60.9390 142° Southeast 492 566 37,000  Level FlightAware ADS-B
Wed 03:10:23 AM -2.0820 -60.8620 143° Southeast 493 567 37,000  Level FlightAware ADS-B
Wed 03:11:02 AM -2.1510 -60.8080 142° Southeast 493 567 37,000  Level FlightAware ADS-B
Wed 03:11:57 AM -2.2530 -60.7300 143° Southeast 494 568 37,000  Level FlightAware ADS-B
Wed 03:12:39 AM -2.3300 -60.6710 143° Southeast 494 568 37,000  Level FlightAware ADS-B
Wed 03:13:25 AM -2.4130 -60.6070 142° Southeast 495 570 37,000  Level FlightAware ADS-B
Wed 03:14:05 AM -2.4850 -60.5510 142° Southeast 495 570 37,000  Level FlightAware ADS-B
Wed 03:14:36 AM -2.5310 -60.5130 140° Southeast 496 571 37,000  Level FlightAware ADS-B
Wed 03:15:10 AM -2.5960 -60.4550 138° Southeast 496 571 37,000  Level FlightAware ADS-B
Wed 03:16:06 AM -2.6270 -60.4270 138° Southeast 496 571 37,000  Level FlightAware ADS-B
Wed 03:16:45 AM -2.7600 -60.3070 138° Southeast 496 571 37,000  Level FlightAware ADS-B
Wed 03:17:29 AM -2.8350 -60.2390 138° Southeast 496 571 37,000  Level FlightAware ADS-B
Wed 03:18:09 AM -2.9030 -60.1780 138° Southeast 497 572 37,000  Level FlightAware ADS-B
Wed 03:18:53 AM -2.9800 -60.1090 138° Southeast 499 574 37,000  Level FlightAware ADS-B
Wed 03:19:35 AM -3.0570 -60.0500 143° Southeast 498 573 37,000  Level FlightAware ADS-B
Wed 03:20:17 AM -3.1420 -60.0070 153° Southeast 499 574 37,000  Level FlightAware ADS-B
Wed 03:20:59 AM -3.2310 -59.9660 155° Southeast 499 574 37,000  Level FlightAware ADS-B
Wed 03:21:39 AM -3.3160 -59.9270 155° Southeast 499 574 37,000  Level FlightAware ADS-B
Wed 03:22:24 AM -3.4090 -59.8850 156° South 500 575 37,000  Level FlightAware ADS-B
Wed 03:23:03 AM -3.4920 -59.8460 155° Southeast 500 575 37,000  Level FlightAware ADS-B
Wed 03:23:47 AM -3.5860 -59.8020 155° Southeast 500 575 37,000  Level FlightAware ADS-B
Wed 03:24:27 AM -3.6670 -59.7590 152° Southeast 500 575 37,000  Level FlightAware ADS-B
Wed 03:25:09 AM -3.7530 -59.7090 150° Southeast 499 574 37,000  Level FlightAware ADS-B
Wed 03:25:51 AM -3.8360 -59.6610 150° Southeast 499 574 37,000  Level FlightAware ADS-B
Wed 03:26:35 AM -3.9240 -59.6100 150° Southeast 498 573 37,000  Level FlightAware ADS-B
Wed 03:27:19 AM -4.0120 -59.5580 149° Southeast 500 575 37,000  Level FlightAware ADS-B
Wed 03:28:01 AM -4.0950 -59.5100 150° Southeast 500 575 37,000  Level FlightAware ADS-B
Wed 03:28:39 AM -4.1710 -59.4660 150° Southeast 500 575 37,000  Level FlightAware ADS-B
Wed 03:29:35 AM -4.2730 -59.4050 149° Southeast 499 574 37,000  Level FlightAware ADS-B
Wed 03:30:11 AM -4.3340 -59.3690 150° Southeast 499 574 37,000  Level FlightAware ADS-B
Wed 03:30:58 AM -4.4130 -59.3210 149° Southeast 499 574 37,000  Level FlightAware ADS-B
Wed 03:31:46 AM -4.4930 -59.2720 149° Southeast 499 574 37,000  Level FlightAware ADS-B
Wed 03:32:23 AM -4.5560 -59.2350 150° Southeast 499 574 37,000  Level FlightAware ADS-B
Wed 03:32:59 AM -4.6160 -59.1980 148° Southeast 499 574 37,000  Level FlightAware ADS-B
Wed 03:33:47 AM -4.6970 -59.1500 149° Southeast 499 574 37,000  Level FlightAware ADS-B
Wed 03:34:23 AM -4.7570 -59.1130 148° Southeast 499 574 37,000  Level FlightAware ADS-B
Wed 03:35:25 AM -4.8620 -59.0500 149° Southeast 499 574 37,000  Level FlightAware ADS-B
Wed 03:36:01 AM -4.9220 -59.0140 149° Southeast 499 574 37,000  Level FlightAware ADS-B
Wed 03:36:50 AM -5.0050 -58.9640 149° Southeast 499 574 37,000  Level FlightAware ADS-B
Wed 03:37:26 AM -5.0650 -58.9280 149° Southeast 499 574 37,000  Level FlightAware ADS-B
Wed 03:38:14 AM -5.1460 -58.8790 149° Southeast 499 574 37,000  Level FlightAware ADS-B
Wed 03:38:50 AM -5.2070 -58.8420 149° Southeast 499 574 37,000  Level FlightAware ADS-B
Wed 03:41:00 AM -5.4486 -58.6904 148° Southeast  Level Estimated
Wed 03:42:00 AM -5.5601 -58.6203 148° Southeast  Level Estimated
Wed 03:43:00 AM -5.6716 -58.5503 148° Southeast  Level Estimated
Wed 03:44:00 AM -5.7830 -58.4802 148° Southeast  Level Estimated
Wed 03:45:00 AM -5.8945 -58.4101 148° Southeast  Level Estimated
Wed 03:46:00 AM -6.0060 -58.3400 148° Southeast  Level Estimated
Wed 03:47:00 AM -6.1174 -58.2698 148° Southeast  Level Estimated
Wed 03:48:00 AM -6.2289 -58.1996 148° Southeast  Level Estimated
Wed 03:49:00 AM -6.3409 -58.1291 148° Southeast  Level Estimated
Wed 03:50:00 AM -6.4529 -58.0584 148° Southeast  Level Estimated
Wed 03:51:00 AM -6.5649 -57.9878 148° Southeast  Level Estimated
Wed 03:52:00 AM -6.6769 -57.9171 148° Southeast  Level Estimated
Wed 03:53:00 AM -6.7889 -57.8464 148° Southeast  Level Estimated
Wed 03:54:00 AM -6.9008 -57.7756 148° Southeast  Level Estimated
Wed 03:55:00 AM -7.0128 -57.7048 148° Southeast  Level Estimated
Wed 03:56:00 AM -7.1247 -57.6340 148° Southeast  Level Estimated
Wed 03:57:00 AM -7.2367 -57.5632 148° Southeast  Level Estimated
Wed 03:58:00 AM -7.3486 -57.4923 148° Southeast  Level Estimated
Wed 03:59:00 AM -7.4605 -57.4214 148° Southeast  Level Estimated
Wed 04:00:00 AM -7.5724 -57.3504 148° Southeast  Level Estimated
Wed 04:01:00 AM -7.6843 -57.2794 148° Southeast  Level Estimated
Wed 04:02:00 AM -7.7962 -57.2084 148° Southeast  Level Estimated
Wed 04:03:00 AM -7.9081 -57.1373 148° Southeast  Level Estimated
Wed 04:04:00 AM -8.0199 -57.0662 148° Southeast  Level Estimated
Wed 04:05:00 AM -8.1318 -56.9950 148° Southeast  Level Estimated
Wed 04:06:00 AM -8.2436 -56.9239 148° Southeast  Level Estimated
Wed 04:07:00 AM -8.3554 -56.8526 148° Southeast  Level Estimated
Wed 04:08:00 AM -8.4672 -56.7813 148° Southeast  Level Estimated
Wed 04:09:00 AM -8.5790 -56.7100 148° Southeast  Level Estimated
Wed 04:10:00 AM -8.6908 -56.6387 148° Southeast  Level Estimated
Wed 04:11:00 AM -8.8026 -56.5673 148° Southeast  Level Estimated
Wed 04:12:00 AM -8.9143 -56.4958 148° Southeast  Level Estimated
Wed 04:13:00 AM -9.0261 -56.4244 148° Southeast  Level Estimated
Wed 04:14:00 AM -9.1378 -56.3528 148° Southeast  Level Estimated
Wed 04:15:00 AM -9.2495 -56.2813 148° Southeast  Level Estimated
Wed 04:16:00 AM -9.3612 -56.2096 148° Southeast  Level Estimated
Wed 04:17:00 AM -9.4729 -56.1380 148° Southeast  Level Estimated
Wed 04:18:00 AM -9.5846 -56.0663 148° Southeast  Level Estimated
Wed 04:19:00 AM -9.6962 -55.9945 148° Southeast  Level Estimated
Wed 04:20:00 AM -9.8079 -55.9227 148° Southeast  Level Estimated
Wed 04:21:00 AM -9.9193 -55.8510 148° Southeast  Level Estimated
Wed 04:22:00 AM -10.0307 -55.7792 148° Southeast  Level Estimated
Wed 04:23:00 AM -10.1421 -55.7074 148° Southeast  Level Estimated
Wed 04:24:00 AM -10.2535 -55.6355 148° Southeast  Level Estimated
Wed 04:25:00 AM -10.3649 -55.5636 148° Southeast  Level Estimated
Wed 04:26:00 AM -10.4762 -55.4916 148° Southeast  Level Estimated
Wed 04:27:00 AM -10.5875 -55.4196 148° Southeast  Level Estimated
Wed 04:28:00 AM -10.6988 -55.3475 148° Southeast  Level Estimated
Wed 04:29:00 AM -10.8102 -55.2753 148° Southeast  Level Estimated
Wed 04:30:00 AM -10.9214 -55.2031 148° Southeast  Level Estimated
Wed 04:31:00 AM -11.0327 -55.1309 147° Southeast  Level Estimated
Wed 04:32:00 AM -11.1440 -55.0586 147° Southeast  Level Estimated
Wed 04:33:00 AM -11.2552 -54.9863 147° Southeast  Level Estimated
Wed 04:34:00 AM -11.3664 -54.9138 147° Southeast  Level Estimated
Wed 04:35:00 AM -11.4776 -54.8414 147° Southeast  Level Estimated
Wed 04:36:00 AM -11.5888 -54.7688 147° Southeast  Level Estimated
Wed 04:37:00 AM -11.7000 -54.6963 147° Southeast  Level Estimated
Wed 04:38:00 AM -11.8111 -54.6236 147° Southeast  Level Estimated
Wed 04:39:00 AM -11.9222 -54.5509 147° Southeast  Level Estimated
Wed 04:40:00 AM -12.0333 -54.4782 147° Southeast  Level Estimated
Wed 04:41:00 AM -12.1444 -54.4053 147° Southeast  Level Estimated
Wed 04:42:00 AM -12.2555 -54.3325 147° Southeast  Level Estimated
Wed 04:43:00 AM -12.3665 -54.2595 147° Southeast  Level Estimated
Wed 04:44:00 AM -12.4776 -54.1865 147° Southeast  Level Estimated
Wed 04:45:00 AM -12.5886 -54.1135 147° Southeast  Level Estimated
Wed 04:46:00 AM -12.6996 -54.0403 147° Southeast  Level Estimated
Wed 04:47:00 AM -12.8105 -53.9672 147° Southeast  Level Estimated
Wed 04:48:00 AM -12.9215 -53.8939 147° Southeast  Level Estimated
Wed 04:49:00 AM -13.0324 -53.8206 147° Southeast  Level Estimated
Wed 04:50:00 AM -13.1433 -53.7472 147° Southeast  Level Estimated
Wed 04:51:00 AM -13.2542 -53.6737 147° Southeast  Level Estimated
Wed 04:52:00 AM -13.3651 -53.6002 147° Southeast  Level Estimated
Wed 04:53:00 AM -13.4759 -53.5266 147° Southeast  Level Estimated
Wed 04:54:00 AM -13.5868 -53.4530 147° Southeast  Level Estimated
Wed 04:55:00 AM -13.6976 -53.3792 147° Southeast  Level Estimated
Wed 04:56:00 AM -13.8083 -53.3055 147° Southeast  Level Estimated
Wed 04:57:00 AM -13.9191 -53.2316 147° Southeast  Level Estimated
Wed 04:58:00 AM -14.0299 -53.1577 147° Southeast  Level Estimated
Wed 04:59:00 AM -14.1406 -53.0836 147° Southeast  Level Estimated
Wed 05:00:00 AM -14.2513 -53.0096 147° Southeast  Level Estimated
Wed 05:01:00 AM -14.3619 -52.9354 147° Southeast  Level Estimated
Wed 05:02:00 AM -14.4726 -52.8612 147° Southeast  Level Estimated
Wed 05:03:00 AM -14.5832 -52.7869 147° Southeast  Level Estimated
Wed 05:04:00 AM -14.6938 -52.7125 147° Southeast  Level Estimated
Wed 05:05:00 AM -14.8044 -52.6381 147° Southeast  Level Estimated
Wed 05:06:00 AM -14.9149 -52.5636 147° Southeast  Level Estimated
Wed 05:07:00 AM -15.0255 -52.4890 147° Southeast  Level Estimated
Wed 05:08:00 AM -15.1360 -52.4143 147° Southeast  Level Estimated
Wed 05:09:00 AM -15.2464 -52.3395 147° Southeast  Level Estimated
Wed 05:10:00 AM -15.3569 -52.2647 147° Southeast  Level Estimated
Wed 05:11:00 AM -15.4673 -52.1898 147° Southeast  Level Estimated
Wed 05:12:00 AM -15.5777 -52.1148 147° Southeast  Level Estimated
Wed 05:13:00 AM -15.6881 -52.0397 147° Southeast  Level Estimated
Wed 05:14:00 AM -15.7985 -51.9646 147° Southeast  Level Estimated
Wed 05:15:00 AM -15.9088 -51.8893 147° Southeast  Level Estimated
Wed 05:16:00 AM -16.0191 -51.8140 147° Southeast  Level Estimated
Wed 05:17:00 AM -16.1294 -51.7386 147° Southeast  Level Estimated
Wed 05:18:00 AM -16.2396 -51.6631 147° Southeast  Level Estimated
Wed 05:19:00 AM -16.3498 -51.5875 147° Southeast  Level Estimated
Wed 05:20:00 AM -16.4600 -51.5119 147° Southeast  Level Estimated
Wed 05:21:00 AM -16.5702 -51.4361 147° Southeast  Level Estimated
Wed 05:22:00 AM -16.6803 -51.3603 147° Southeast  Level Estimated
Wed 05:23:00 AM -16.7904 -51.2844 147° Southeast  Level Estimated
Wed 05:24:00 AM -16.9005 -51.2084 147° Southeast  Level Estimated
Wed 05:25:00 AM -17.0106 -51.1323 147° Southeast  Level Estimated
Wed 05:26:00 AM -17.1206 -51.0561 147° Southeast  Level Estimated
Wed 05:27:00 AM -17.2306 -50.9798 146° Southeast  Level Estimated
Wed 05:28:00 AM -17.3406 -50.9035 146° Southeast  Level Estimated
Wed 05:29:00 AM -17.4505 -50.8270 146° Southeast  Level Estimated
Wed 05:30:00 AM -17.5604 -50.7505 146° Southeast  Level Estimated
Wed 05:31:00 AM -17.6703 -50.6738 146° Southeast  Level Estimated
Wed 05:32:00 AM -17.7801 -50.5971 146° Southeast  Level Estimated
Wed 05:33:00 AM -17.8900 -50.5202 146° Southeast  Level Estimated
Wed 05:34:00 AM -17.9998 -50.4433 146° Southeast  Level Estimated
Wed 05:35:00 AM -18.1095 -50.3663 146° Southeast  Level Estimated
Wed 05:36:00 AM -18.2192 -50.2892 146° Southeast  Level Estimated
Wed 05:36:04 AM -18.5300 -50.2580 146° Southeast 499 574 37,000  Level FlightAware ADS-B
Wed 05:36:38 AM -18.5840 -50.2130 142° Southeast 499 574 37,000  Level FlightAware ADS-B
Wed 05:37:53 AM -18.7310 -50.0950 143° Southeast 501 577 37,000  Level FlightAware ADS-B
Wed 05:38:36 AM -18.8100 -50.0310 143° Southeast 502 578 37,000  Level FlightAware ADS-B
Wed 05:39:20 AM -18.8910 -49.9660 143° Southeast 502 578 37,000  Level FlightAware ADS-B
Wed 05:40:02 AM -18.9680 -49.9030 142° Southeast 503 579 37,000  Level FlightAware ADS-B
Wed 05:40:44 AM -19.0440 -49.8410 142° Southeast 504 580 37,000  Level FlightAware ADS-B
Wed 05:41:24 AM -19.1190 -49.7800 142° Southeast 506 582 37,000  Level FlightAware ADS-B
Wed 05:42:08 AM -19.2010 -49.7130 142° Southeast 508 585 37,000 -488 Level FlightAware ADS-B
Wed 05:42:50 AM -19.2790 -49.6470 141° Southeast 508 585 36,300 -1,071 Descending FlightAware ADS-B
Wed 05:43:32 AM -19.3560 -49.5820 141° Southeast 507 583 35,500 -951 Descending FlightAware ADS-B
Wed 05:44:12 AM -19.4290 -49.5200 141° Southeast 505 581 35,000 -375 Descending FlightAware ADS-B
Wed 05:44:52 AM -19.5040 -49.4580 142° Southeast 505 581 35,000  Level FlightAware ADS-B
Wed 05:46:07 AM -19.6380 -49.3450 142° Southeast 503 579 35,000  Level FlightAware ADS-B
Wed 05:46:46 AM -19.7110 -49.2830 141° Southeast 503 579 35,000  Level FlightAware ADS-B
Wed 05:47:31 AM -19.7910 -49.2150 141° Southeast 503 579 35,000  Level FlightAware ADS-B
Wed 05:48:10 AM -19.8620 -49.1550 142° Southeast 503 579 35,000  Level FlightAware ADS-B
Wed 05:48:54 AM -19.9430 -49.0860 141° Southeast 502 578 35,000  Level FlightAware ADS-B
Wed 05:49:31 AM -20.0120 -49.0280 142° Southeast 503 579 35,000  Level FlightAware ADS-B
Wed 05:50:19 AM -20.0990 -48.9540 141° Southeast 504 580 35,000  Level FlightAware ADS-B
Wed 05:51:01 AM -20.1760 -48.8880 141° Southeast 504 580 35,000  Level FlightAware ADS-B
Wed 05:51:41 AM -20.2490 -48.8260 141° Southeast 503 579 35,000  Level FlightAware ADS-B
Wed 05:52:23 AM -20.3260 -48.7650 143° Southeast 498 573 35,000  Level FlightAware ADS-B
Wed 05:53:05 AM -20.4100 -48.7160 151° Southeast 493 567 35,000  Level FlightAware ADS-B
Wed 05:53:47 AM -20.4960 -48.6700 153° Southeast 492 566 35,000  Level FlightAware ADS-B
Wed 05:54:29 AM -20.5820 -48.6240 153° Southeast 492 566 35,000  Level FlightAware ADS-B
Wed 05:55:03 AM -20.6510 -48.5880 154° Southeast 491 565 35,000  Level FlightAware ADS-B
Wed 05:56:03 AM -20.7730 -48.5220 153° Southeast 491 565 35,000  Level FlightAware ADS-B
Wed 05:56:43 AM -20.8540 -48.4790 154° Southeast 492 566 35,000  Level FlightAware ADS-B
Wed 05:57:28 AM -20.9470 -48.4300 154° Southeast 492 566 35,000  Level FlightAware ADS-B
Wed 05:58:07 AM -21.0260 -48.3870 153° Southeast 493 567 35,000  Level FlightAware ADS-B
Wed 05:58:52 AM -21.1160 -48.3290 149° Southeast 504 580 35,000  Level FlightAware ADS-B
Wed 05:59:34 AM -21.1860 -48.2560 136° Southeast 510 587 35,000  Level FlightAware ADS-B
Wed 06:00:08 AM -21.2410 -48.1930 133° Southeast 510 587 35,000  Level FlightAware ADS-B
Wed 06:00:56 AM -21.3180 -48.1050 133° Southeast 509 586 35,000  Level FlightAware ADS-B
Wed 06:01:40 AM -21.3900 -48.0230 133° Southeast 508 585 35,000  Level FlightAware ADS-B
Wed 06:02:20 AM -21.4550 -47.9490 133° Southeast 509 586 35,000  Level FlightAware ADS-B
Wed 06:03:00 AM -21.5190 -47.8770 134° Southeast 510 587 35,000  Level FlightAware ADS-B
Wed 06:03:44 AM -21.5850 -47.8020 133° Southeast 511 588 35,000  Level FlightAware ADS-B
Wed 06:04:28 AM -21.6620 -47.7140 133° Southeast 512 589 35,000  Level FlightAware ADS-B
Wed 06:05:08 AM -21.7270 -47.6410 134° Southeast 511 588 35,000  Level FlightAware ADS-B
Wed 06:05:50 AM -21.7950 -47.5620 133° Southeast 512 589 35,000 -1,465 Level FlightAware ADS-B
Wed 06:06:34 AM -21.8670 -47.4800 133° Southeast 525 604 32,900 -2,286 Descending FlightAware ADS-B
Wed 06:07:14 AM -21.9330 -47.4030 133° Southeast 508 585 31,800 -1,929 Descending FlightAware ADS-B
Wed 06:07:58 AM -22.0090 -47.3380 142° Southeast 490 564 30,200 -2,093 Descending FlightAware ADS-B
Wed 06:08:40 AM -22.0970 -47.2980 157° South 474 545 28,800 -2,000 Descending FlightAware ADS-B
Wed 06:09:22 AM -22.1810 -47.2640 159° South 463 533 27,400 -2,195 Descending FlightAware ADS-B
Wed 06:10:02 AM -22.2630 -47.2300 159° South 460 529 25,800 -2,122 Descending FlightAware ADS-B
Wed 06:10:44 AM -22.3470 -47.1950 159° South 448 516 24,500 -1,918 Descending FlightAware ADS-B
Wed 06:11:39 AM -22.4500 -47.1520 159° South 430 495 22,700 -1,920 Descending FlightAware ADS-B
Wed 06:12:24 AM -22.5340 -47.1160 158° South 421 484 21,300 -2,047 Descending FlightAware ADS-B
Wed 06:13:04 AM -22.6050 -47.0860 159° South 412 474 19,800 -2,259 Descending FlightAware ADS-B
Wed 06:13:49 AM -22.6870 -47.0520 159° South 400 460 18,100 -1,976 Descending FlightAware ADS-B
Wed 06:14:29 AM -22.7550 -47.0230 159° South 397 457 17,000 -1,596 Descending FlightAware ADS-B
Wed 06:15:38 AM -22.8660 -46.9760 159° South 382 440 15,200 -1,784 Descending FlightAware ADS-B
Wed 06:16:20 AM -22.9400 -46.9450 159° South 368 423 13,700 -1,976 Descending FlightAware ADS-B
Wed 06:17:00 AM -23.0040 -46.9180 159° South 361 415 12,500 -1,884 Descending FlightAware ADS-B
Wed 06:17:46 AM -23.0760 -46.8880 159° South 363 418 11,000 -1,765 Descending FlightAware ADS-B
Wed 06:18:25 AM -23.1380 -46.8620 159° South 345 397 10,000 -857 Descending FlightAware ADS-B
Wed 06:18:56 AM -23.1820 -46.8430 158° South 294 338 10,000 -533 Level FlightAware ADS-B
Wed 06:19:10 AM -23.2000 -46.8360 160° South 281 323 9,600 -1,538 Descending FlightAware ADS-B
Wed 06:19:35 AM -23.2300 -46.8230 158° South 261 300 9,000 -1,680 Descending FlightAware ADS-B
Wed 06:20:00 AM -23.2590 -46.8110 159° South 259 298 8,200 -1,902 Descending FlightAware ADS-B
Wed 06:20:16 AM -23.2760 -46.8040 159° South 244 281 7,700 -828 Descending FlightAware ADS-B
Wed 06:20:58 AM -23.3170 -46.7860 158° South 234 269 7,400 -600 Descending FlightAware ADS-B
Wed 06:21:26 AM -23.3450 -46.7750 160° South 229 264 7,000 -737 Descending FlightAware ADS-B
Wed 06:21:55 AM -23.3770 -46.7580 154° Southeast 230 265 6,700 -800 Descending FlightAware ADS-B
Wed 06:22:11 AM -23.3890 -46.7470 140° Southeast 232 267 6,400 -1,043 Descending FlightAware ADS-B
Wed 06:22:41 AM -23.4140 -46.7240 140° Southeast 228 262 5,900 -931 Descending FlightAware ADS-B
Wed 06:23:09 AM -23.4360 -46.7030 139° Southeast 221 254 5,500 -107 Descending FlightAware ADS-B
Wed 06:23:37 AM -23.4540 -46.6800 130° Southeast 224 258 5,800 214 Climbing FlightAware ADS-B
Wed 06:24:05 AM -23.4690 -46.6520 120° Southeast 221 254 5,700 -321 Descending FlightAware ADS-B
Wed 06:24:33 AM -23.4820 -46.6240 117° Southeast 211 243 5,500 -462 Descending FlightAware ADS-B
Wed 06:24:44 AM -23.4830 -46.6140 96° East 216 249 5,400 -889 Descending FlightAware ADS-B
Wed 06:25:00 AM -23.4790 -46.5970 76° East 204 235 5,100 -1,034 Descending FlightAware ADS-B
Wed 06:25:13 AM -23.4740 -46.5860 64° Northeast 189 217 4,900 878 Descending FlightAware ADS-B
Wed 06:25:41 AM -23.4570 -46.5630 51° Northeast 213 245 5,700 1,929 Climbing FlightAware ADS-B
Wed 06:26:09 AM -23.4430 -46.5350 61° Northeast 225 259 6,700 1,071 Climbing FlightAware ADS-B
Wed 06:26:37 AM -23.4310 -46.5020 68° East 277 319 6,700 136 Level FlightAware ADS-B
Wed 06:26:53 AM -23.4160 -46.4860 44° Northeast 271 312 6,800 643 Climbing FlightAware ADS-B
Wed 06:27:05 AM -23.4030 -46.4810 19° North 252 290 7,000 300 Climbing FlightAware ADS-B
Wed 06:27:33 AM -23.3720 -46.4880 348° North 241 277 7,000  Level FlightAware ADS-B
Wed 06:28:01 AM -23.3420 -46.4980 343° North 241 277 7,000  Level FlightAware ADS-B
Wed 06:28:17 AM -23.3270 -46.5070 331° Northwest 229 264 7,000 -231 Level FlightAware ADS-B
Wed 06:28:27 AM -23.3220 -46.5160 301° West 220 253 6,900 -600 Descending FlightAware ADS-B
Wed 06:28:37 AM -23.3200 -46.5270 281° West 218 251 6,800 -1,000 Descending FlightAware ADS-B
Wed 06:28:57 AM -23.3250 -46.5490 256° West 215 247 6,400 -1,000 Descending FlightAware ADS-B
Wed 06:29:25 AM -23.3360 -46.5770 247° West 207 238 6,000 -750 Descending FlightAware ADS-B
Wed 06:29:53 AM -23.3460 -46.6030 247° West 190 219 5,700 -321 Descending FlightAware ADS-B
Wed 06:30:21 AM -23.3550 -46.6270 248° West 190 219 5,700  Level FlightAware ADS-B
Wed 06:30:48 AM -23.3650 -46.6500 245° Southwest 192 221 5,700  Level FlightAware ADS-B
Wed 06:31:03 AM -23.3760 -46.6590 217° Southwest 201 231 5,700  Level FlightAware ADS-B
Wed 06:31:16 AM -23.3880 -46.6640 201° Southwest 202 232 5,700 -150 Level FlightAware ADS-B
Wed 06:31:43 AM -23.4120 -46.6710 195° South 199 229 5,600 -545 Descending FlightAware ADS-B
Wed 06:32:11 AM -23.4380 -46.6790 196° South 201 231 5,200 -600 Descending FlightAware ADS-B
Wed 06:32:23 AM -23.4480 -46.6810 190° South 208 239 5,200 -545 Level FlightAware ADS-B
Wed 06:32:55 AM -23.4720 -46.6620 144° Southeast 207 238 4,800 -857 Descending FlightAware ADS-B
Wed 06:33:19 AM -23.4780 -46.6380 105° East 198 228 4,400 -421 Descending FlightAware ADS-B
Wed 06:33:52 AM -23.4720 -46.6090 77° East 176 203 4,400 -305 Level FlightAware ADS-B
Wed 06:34:18 AM -23.4660 -46.5880 73° East 154 177 4,100 -792 Descending FlightAware ADS-B
Wed 06:34:45 AM -23.4610 -46.5680 75° East 150 173 3,700 -873 Descending FlightAware ADS-B
Wed 06:35:13 AM -23.4560 -46.5490 74° East 146 168 3,300 -750 Descending FlightAware ADS-B
Wed 06:35:41 AM -23.4500 -46.5290 72° East 143 165 3,000 -658 Descending FlightAware ADS-B
Wed 06:36:26 AM -23.4420 -46.4990 74° East 140 161 2,500 -771 Descending FlightAware ADS-B
Wed 06:36:51 AM -23.4370 -46.4810 73° East 137 158 2,100 -960 Descending FlightAware ADS-B
Wed 06:38:57 AM -23.4280 -46.4620 63° Northeast 13 15 -1,000 Descending FlightAware ADS-B

Login

Don't have an account? Register now (free) for customized features, flight alerts, and more!